sensor_id;sensor_type;location;lat;lon;timestamp;P1;durP1;ratioP1;P2;durP2;ratioP2
4652;SDS011;9900;48.738;9.306;2022-11-27T00:01:31;24.33;;;12.07;;
4652;SDS011;9900;48.738;9.306;2022-11-27T00:04:01;24.90;;;13.60;;
4652;SDS011;9900;48.738;9.306;2022-11-27T00:06:30;28.80;;;13.00;;
4652;SDS011;9900;48.738;9.306;2022-11-27T00:08:59;33.53;;;14.13;;
4652;SDS011;9900;48.738;9.306;2022-11-27T00:11:29;26.33;;;14.10;;
4652;SDS011;9900;48.738;9.306;2022-11-27T00:13:59;26.60;;;12.87;;
4652;SDS011;9900;48.738;9.306;2022-11-27T00:16:29;27.40;;;13.70;;
4652;SDS011;9900;48.738;9.306;2022-11-27T00:18:58;28.63;;;13.73;;
4652;SDS011;9900;48.738;9.306;2022-11-27T00:21:27;27.80;;;13.60;;
4652;SDS011;9900;48.738;9.306;2022-11-27T00:23:57;32.57;;;13.53;;
4652;SDS011;9900;48.738;9.306;2022-11-27T00:26:28;23.33;;;12.43;;
4652;SDS011;9900;48.738;9.306;2022-11-27T00:29:05;24.40;;;13.27;;
4652;SDS011;9900;48.738;9.306;2022-11-27T00:31:35;31.65;;;15.48;;
4652;SDS011;9900;48.738;9.306;2022-11-27T00:34:05;23.93;;;13.77;;
4652;SDS011;9900;48.738;9.306;2022-11-27T00:36:35;26.83;;;14.10;;
4652;SDS011;9900;48.738;9.306;2022-11-27T00:39:04;27.53;;;13.60;;
4652;SDS011;9900;48.738;9.306;2022-11-27T00:41:33;23.67;;;13.70;;
4652;SDS011;9900;48.738;9.306;2022-11-27T00:44:02;22.47;;;13.20;;
4652;SDS011;9900;48.738;9.306;2022-11-27T00:46:33;34.20;;;12.30;;
4652;SDS011;9900;48.738;9.306;2022-11-27T00:49:03;30.83;;;13.50;;
4652;SDS011;9900;48.738;9.306;2022-11-27T00:51:33;41.10;;;13.60;;
4652;SDS011;9900;48.738;9.306;2022-11-27T00:54:02;64.90;;;14.10;;
4652;SDS011;9900;48.738;9.306;2022-11-27T00:56:31;28.27;;;13.23;;
4652;SDS011;9900;48.738;9.306;2022-11-27T00:59:01;38.73;;;13.00;;
4652;SDS011;9900;48.738;9.306;2022-11-27T01:01:31;31.47;;;13.67;;
4652;SDS011;9900;48.738;9.306;2022-11-27T01:04:02;21.40;;;12.37;;
4652;SDS011;9900;48.738;9.306;2022-11-27T01:06:32;24.30;;;12.40;;
4652;SDS011;9900;48.738;9.306;2022-11-27T01:09:01;24.43;;;14.20;;
4652;SDS011;9900;48.738;9.306;2022-11-27T01:11:31;28.17;;;14.43;;
4652;SDS011;9900;48.738;9.306;2022-11-27T01:14:01;26.97;;;13.40;;
4652;SDS011;9900;48.738;9.306;2022-11-27T01:16:32;23.67;;;11.03;;
4652;SDS011;9900;48.738;9.306;2022-11-27T01:19:02;23.50;;;12.60;;
4652;SDS011;9900;48.738;9.306;2022-11-27T01:21:33;23.47;;;12.63;;
4652;SDS011;9900;48.738;9.306;2022-11-27T01:24:03;24.83;;;11.20;;
4652;SDS011;9900;48.738;9.306;2022-11-27T01:26:32;21.87;;;12.43;;
4652;SDS011;9900;48.738;9.306;2022-11-27T01:29:01;21.37;;;11.63;;
4652;SDS011;9900;48.738;9.306;2022-11-27T01:31:31;22.37;;;12.10;;
4652;SDS011;9900;48.738;9.306;2022-11-27T01:34:02;24.97;;;13.20;;
4652;SDS011;9900;48.738;9.306;2022-11-27T01:36:32;21.17;;;11.57;;
4652;SDS011;9900;48.738;9.306;2022-11-27T01:39:02;17.43;;;11.20;;
4652;SDS011;9900;48.738;9.306;2022-11-27T01:41:32;25.27;;;11.47;;
4652;SDS011;9900;48.738;9.306;2022-11-27T01:44:02;21.93;;;12.87;;
4652;SDS011;9900;48.738;9.306;2022-11-27T01:46:53;24.87;;;12.20;;
4652;SDS011;9900;48.738;9.306;2022-11-27T01:49:23;22.93;;;12.37;;
4652;SDS011;9900;48.738;9.306;2022-11-27T01:51:55;20.77;;;11.00;;
4652;SDS011;9900;48.738;9.306;2022-11-27T01:54:25;24.83;;;10.40;;
4652;SDS011;9900;48.738;9.306;2022-11-27T01:56:57;20.73;;;11.00;;
4652;SDS011;9900;48.738;9.306;2022-11-27T01:59:29;24.90;;;11.07;;
4652;SDS011;9900;48.738;9.306;2022-11-27T02:01:59;19.17;;;10.70;;
4652;SDS011;9900;48.738;9.306;2022-11-27T02:04:29;25.33;;;9.97;;
4652;SDS011;9900;48.738;9.306;2022-11-27T02:06:58;26.70;;;11.40;;
4652;SDS011;9900;48.738;9.306;2022-11-27T02:09:27;23.63;;;10.13;;
4652;SDS011;9900;48.738;9.306;2022-11-27T02:11:57;18.53;;;9.40;;
4652;SDS011;9900;48.738;9.306;2022-11-27T02:14:31;17.20;;;11.30;;
4652;SDS011;9900;48.738;9.306;2022-11-27T02:17:05;16.10;;;10.23;;
4652;SDS011;9900;48.738;9.306;2022-11-27T02:19:42;15.10;;;9.63;;
4652;SDS011;9900;48.738;9.306;2022-11-27T02:22:36;26.23;;;10.80;;
4652;SDS011;9900;48.738;9.306;2022-11-27T02:25:12;18.97;;;8.73;;
4652;SDS011;9900;48.738;9.306;2022-11-27T02:27:56;21.80;;;10.03;;
4652;SDS011;9900;48.738;9.306;2022-11-27T02:30:33;16.80;;;9.93;;
4652;SDS011;9900;48.738;9.306;2022-11-27T02:33:05;15.97;;;9.40;;
4652;SDS011;9900;48.738;9.306;2022-11-27T02:35:37;15.87;;;8.83;;
4652;SDS011;9900;48.738;9.306;2022-11-27T02:38:08;33.47;;;9.77;;
4652;SDS011;9900;48.738;9.306;2022-11-27T02:40:41;24.30;;;10.50;;
4652;SDS011;9900;48.738;9.306;2022-11-27T02:43:13;17.90;;;10.33;;
4652;SDS011;9900;48.738;9.306;2022-11-27T02:45:46;30.93;;;10.50;;
4652;SDS011;9900;48.738;9.306;2022-11-27T02:48:16;41.40;;;10.57;;
4652;SDS011;9900;48.738;9.306;2022-11-27T02:50:47;19.00;;;10.67;;
4652;SDS011;9900;48.738;9.306;2022-11-27T02:53:19;19.90;;;10.37;;
4652;SDS011;9900;48.738;9.306;2022-11-27T02:55:49;17.20;;;10.00;;
4652;SDS011;9900;48.738;9.306;2022-11-27T02:58:21;19.67;;;10.27;;
4652;SDS011;9900;48.738;9.306;2022-11-27T03:00:53;20.30;;;10.20;;
4652;SDS011;9900;48.738;9.306;2022-11-27T03:03:23;16.97;;;9.83;;
4652;SDS011;9900;48.738;9.306;2022-11-27T03:05:54;25.03;;;9.73;;
4652;SDS011;9900;48.738;9.306;2022-11-27T03:08:27;21.43;;;10.40;;
4652;SDS011;9900;48.738;9.306;2022-11-27T03:11:00;26.30;;;10.27;;
4652;SDS011;9900;48.738;9.306;2022-11-27T03:13:31;14.77;;;9.20;;
4652;SDS011;9900;48.738;9.306;2022-11-27T03:16:07;16.60;;;10.07;;
4652;SDS011;9900;48.738;9.306;2022-11-27T03:18:38;23.43;;;9.63;;
4652;SDS011;9900;48.738;9.306;2022-11-27T03:21:12;23.10;;;9.63;;
4652;SDS011;9900;48.738;9.306;2022-11-27T03:23:45;28.30;;;10.93;;
4652;SDS011;9900;48.738;9.306;2022-11-27T03:26:14;13.43;;;8.67;;
4652;SDS011;9900;48.738;9.306;2022-11-27T03:28:43;19.63;;;11.03;;
4652;SDS011;9900;48.738;9.306;2022-11-27T03:31:13;16.87;;;9.57;;
4652;SDS011;9900;48.738;9.306;2022-11-27T03:33:42;18.13;;;10.13;;
4652;SDS011;9900;48.738;9.306;2022-11-27T03:36:12;15.90;;;9.40;;
4652;SDS011;9900;48.738;9.306;2022-11-27T03:38:42;15.03;;;9.53;;
4652;SDS011;9900;48.738;9.306;2022-11-27T03:41:13;15.97;;;9.10;;
4652;SDS011;9900;48.738;9.306;2022-11-27T03:43:48;13.50;;;9.40;;
4652;SDS011;9900;48.738;9.306;2022-11-27T03:46:27;23.63;;;8.60;;
4652;SDS011;9900;48.738;9.306;2022-11-27T03:49:02;31.97;;;8.80;;
4652;SDS011;9900;48.738;9.306;2022-11-27T03:51:35;13.97;;;8.73;;
4652;SDS011;9900;48.738;9.306;2022-11-27T03:54:10;11.10;;;7.57;;
4652;SDS011;9900;48.738;9.306;2022-11-27T03:56:44;12.13;;;8.17;;
4652;SDS011;9900;48.738;9.306;2022-11-27T03:59:16;12.83;;;7.63;;
4652;SDS011;9900;48.738;9.306;2022-11-27T04:01:48;12.07;;;8.00;;
4652;SDS011;9900;48.738;9.306;2022-11-27T04:04:17;15.50;;;8.20;;
4652;SDS011;9900;48.738;9.306;2022-11-27T04:06:46;10.50;;;8.00;;
4652;SDS011;9900;48.738;9.306;2022-11-27T04:09:14;15.53;;;8.00;;
4652;SDS011;9900;48.738;9.306;2022-11-27T04:11:43;12.00;;;8.83;;
4652;SDS011;9900;48.738;9.306;2022-11-27T04:14:11;17.10;;;8.70;;
4652;SDS011;9900;48.738;9.306;2022-11-27T04:16:40;15.10;;;8.60;;
4652;SDS011;9900;48.738;9.306;2022-11-27T04:19:10;29.17;;;8.90;;
4652;SDS011;9900;48.738;9.306;2022-11-27T04:21:39;13.80;;;8.00;;
4652;SDS011;9900;48.738;9.306;2022-11-27T04:24:07;12.77;;;8.37;;
4652;SDS011;9900;48.738;9.306;2022-11-27T04:26:36;11.63;;;7.83;;
4652;SDS011;9900;48.738;9.306;2022-11-27T04:29:04;12.10;;;7.70;;
4652;SDS011;9900;48.738;9.306;2022-11-27T04:31:33;13.20;;;8.40;;
4652;SDS011;9900;48.738;9.306;2022-11-27T04:34:02;11.20;;;7.67;;
4652;SDS011;9900;48.738;9.306;2022-11-27T04:36:32;11.67;;;7.13;;
4652;SDS011;9900;48.738;9.306;2022-11-27T04:39:05;15.23;;;7.47;;
4652;SDS011;9900;48.738;9.306;2022-11-27T04:41:34;30.77;;;9.27;;
4652;SDS011;9900;48.738;9.306;2022-11-27T04:44:03;11.00;;;8.07;;
4652;SDS011;9900;48.738;9.306;2022-11-27T04:46:31;17.70;;;8.03;;
4652;SDS011;9900;48.738;9.306;2022-11-27T04:49:00;52.13;;;9.40;;
4652;SDS011;9900;48.738;9.306;2022-11-27T04:51:29;19.63;;;8.60;;
4652;SDS011;9900;48.738;9.306;2022-11-27T04:53:59;20.87;;;9.60;;
4652;SDS011;9900;48.738;9.306;2022-11-27T04:56:27;18.77;;;8.70;;
4652;SDS011;9900;48.738;9.306;2022-11-27T04:58:56;20.13;;;8.43;;
4652;SDS011;9900;48.738;9.306;2022-11-27T05:01:25;11.40;;;8.50;;
4652;SDS011;9900;48.738;9.306;2022-11-27T05:03:53;12.57;;;7.60;;
4652;SDS011;9900;48.738;9.306;2022-11-27T05:06:22;19.70;;;7.83;;
4652;SDS011;9900;48.738;9.306;2022-11-27T05:08:52;18.23;;;8.30;;
4652;SDS011;9900;48.738;9.306;2022-11-27T05:11:27;22.73;;;8.73;;
4652;SDS011;9900;48.738;9.306;2022-11-27T05:13:56;37.80;;;8.70;;
4652;SDS011;9900;48.738;9.306;2022-11-27T05:16:39;25.10;;;8.33;;
4652;SDS011;9900;48.738;9.306;2022-11-27T05:19:08;74.03;;;9.80;;
4652;SDS011;9900;48.738;9.306;2022-11-27T05:21:37;24.77;;;8.43;;
4652;SDS011;9900;48.738;9.306;2022-11-27T05:24:06;21.10;;;9.00;;
4652;SDS011;9900;48.738;9.306;2022-11-27T05:26:36;35.77;;;8.03;;
4652;SDS011;9900;48.738;9.306;2022-11-27T05:29:06;25.20;;;8.20;;
4652;SDS011;9900;48.738;9.306;2022-11-27T05:31:35;21.80;;;6.93;;
4652;SDS011;9900;48.738;9.306;2022-11-27T05:34:04;19.67;;;7.67;;
4652;SDS011;9900;48.738;9.306;2022-11-27T05:36:33;18.83;;;7.77;;
4652;SDS011;9900;48.738;9.306;2022-11-27T05:39:02;16.53;;;7.20;;
4652;SDS011;9900;48.738;9.306;2022-11-27T05:41:33;11.73;;;8.07;;
4652;SDS011;9900;48.738;9.306;2022-11-27T05:44:04;29.90;;;9.10;;
4652;SDS011;9900;48.738;9.306;2022-11-27T05:46:32;13.63;;;7.77;;
4652;SDS011;9900;48.738;9.306;2022-11-27T05:49:01;11.70;;;8.00;;
4652;SDS011;9900;48.738;9.306;2022-11-27T05:51:30;10.10;;;6.60;;
4652;SDS011;9900;48.738;9.306;2022-11-27T05:53:59;11.80;;;7.60;;
4652;SDS011;9900;48.738;9.306;2022-11-27T05:56:27;10.83;;;7.57;;
4652;SDS011;9900;48.738;9.306;2022-11-27T05:58:56;12.60;;;7.20;;
4652;SDS011;9900;48.738;9.306;2022-11-27T06:01:26;16.17;;;7.20;;
4652;SDS011;9900;48.738;9.306;2022-11-27T06:03:54;10.70;;;7.20;;
4652;SDS011;9900;48.738;9.306;2022-11-27T06:06:23;27.77;;;8.57;;
4652;SDS011;9900;48.738;9.306;2022-11-27T06:08:52;13.93;;;8.13;;
4652;SDS011;9900;48.738;9.306;2022-11-27T06:11:21;19.87;;;7.47;;
4652;SDS011;9900;48.738;9.306;2022-11-27T06:13:50;10.67;;;7.30;;
4652;SDS011;9900;48.738;9.306;2022-11-27T06:16:19;12.93;;;7.50;;
4652;SDS011;9900;48.738;9.306;2022-11-27T06:18:51;10.40;;;6.87;;
4652;SDS011;9900;48.738;9.306;2022-11-27T06:21:21;15.60;;;7.20;;
4652;SDS011;9900;48.738;9.306;2022-11-27T06:23:51;9.50;;;6.63;;
4652;SDS011;9900;48.738;9.306;2022-11-27T06:26:22;10.17;;;7.30;;
4652;SDS011;9900;48.738;9.306;2022-11-27T06:28:51;36.93;;;7.60;;
4652;SDS011;9900;48.738;9.306;2022-11-27T06:31:22;11.43;;;7.30;;
4652;SDS011;9900;48.738;9.306;2022-11-27T06:33:53;10.57;;;6.97;;
4652;SDS011;9900;48.738;9.306;2022-11-27T06:36:23;19.07;;;7.07;;
4652;SDS011;9900;48.738;9.306;2022-11-27T06:38:54;8.83;;;6.30;;
4652;SDS011;9900;48.738;9.306;2022-11-27T06:41:23;21.17;;;7.13;;
4652;SDS011;9900;48.738;9.306;2022-11-27T06:43:53;7.53;;;6.40;;
4652;SDS011;9900;48.738;9.306;2022-11-27T06:46:22;8.27;;;6.53;;
4652;SDS011;9900;48.738;9.306;2022-11-27T06:48:52;38.70;;;6.80;;
4652;SDS011;9900;48.738;9.306;2022-11-27T06:51:22;11.13;;;6.43;;
4652;SDS011;9900;48.738;9.306;2022-11-27T06:53:51;8.33;;;6.17;;
4652;SDS011;9900;48.738;9.306;2022-11-27T06:56:21;23.20;;;7.07;;
4652;SDS011;9900;48.738;9.306;2022-11-27T06:58:51;13.30;;;6.80;;
4652;SDS011;9900;48.738;9.306;2022-11-27T07:01:20;9.40;;;6.40;;
4652;SDS011;9900;48.738;9.306;2022-11-27T07:03:50;10.30;;;7.23;;
4652;SDS011;9900;48.738;9.306;2022-11-27T07:06:21;8.97;;;6.67;;
4652;SDS011;9900;48.738;9.306;2022-11-27T07:08:50;9.77;;;5.80;;
4652;SDS011;9900;48.738;9.306;2022-11-27T07:11:20;8.80;;;6.80;;
4652;SDS011;9900;48.738;9.306;2022-11-27T07:13:49;9.93;;;6.63;;
4652;SDS011;9900;48.738;9.306;2022-11-27T07:16:19;7.83;;;5.80;;
4652;SDS011;9900;48.738;9.306;2022-11-27T07:18:48;8.97;;;5.87;;
4652;SDS011;9900;48.738;9.306;2022-11-27T07:21:18;7.33;;;5.63;;
4652;SDS011;9900;48.738;9.306;2022-11-27T07:23:48;7.37;;;5.67;;
4652;SDS011;9900;48.738;9.306;2022-11-27T07:26:18;8.30;;;5.60;;
4652;SDS011;9900;48.738;9.306;2022-11-27T07:28:47;8.07;;;5.70;;
4652;SDS011;9900;48.738;9.306;2022-11-27T07:31:17;18.73;;;6.13;;
4652;SDS011;9900;48.738;9.306;2022-11-27T07:33:46;39.00;;;7.07;;
4652;SDS011;9900;48.738;9.306;2022-11-27T07:36:15;19.03;;;6.20;;
4652;SDS011;9900;48.738;9.306;2022-11-27T07:38:45;10.23;;;5.90;;
4652;SDS011;9900;48.738;9.306;2022-11-27T07:41:15;9.63;;;5.47;;
4652;SDS011;9900;48.738;9.306;2022-11-27T07:43:45;17.15;;;6.80;;
4652;SDS011;9900;48.738;9.306;2022-11-27T07:46:14;8.50;;;6.30;;
4652;SDS011;9900;48.738;9.306;2022-11-27T07:48:44;11.30;;;6.80;;
4652;SDS011;9900;48.738;9.306;2022-11-27T07:51:14;6.80;;;5.67;;
4652;SDS011;9900;48.738;9.306;2022-11-27T07:53:44;7.20;;;6.07;;
4652;SDS011;9900;48.738;9.306;2022-11-27T07:56:13;8.50;;;6.00;;
4652;SDS011;9900;48.738;9.306;2022-11-27T07:58:44;7.40;;;5.77;;
4652;SDS011;9900;48.738;9.306;2022-11-27T08:01:13;7.07;;;5.30;;
4652;SDS011;9900;48.738;9.306;2022-11-27T08:03:43;5.10;;;4.60;;
4652;SDS011;9900;48.738;9.306;2022-11-27T08:06:13;5.90;;;4.63;;
4652;SDS011;9900;48.738;9.306;2022-11-27T08:08:43;6.27;;;5.20;;
4652;SDS011;9900;48.738;9.306;2022-11-27T08:11:16;6.30;;;5.27;;
4652;SDS011;9900;48.738;9.306;2022-11-27T08:13:47;5.60;;;4.77;;
4652;SDS011;9900;48.738;9.306;2022-11-27T08:16:16;5.50;;;4.47;;
4652;SDS011;9900;48.738;9.306;2022-11-27T08:18:45;6.00;;;4.90;;
4652;SDS011;9900;48.738;9.306;2022-11-27T08:21:13;16.90;;;5.67;;
4652;SDS011;9900;48.738;9.306;2022-11-27T08:23:42;5.60;;;4.63;;
4652;SDS011;9900;48.738;9.306;2022-11-27T08:26:11;6.17;;;5.43;;
4652;SDS011;9900;48.738;9.306;2022-11-27T08:28:40;8.43;;;5.67;;
4652;SDS011;9900;48.738;9.306;2022-11-27T08:31:11;10.93;;;5.00;;
4652;SDS011;9900;48.738;9.306;2022-11-27T08:33:40;6.00;;;5.00;;
4652;SDS011;9900;48.738;9.306;2022-11-27T08:36:09;6.10;;;4.87;;
4652;SDS011;9900;48.738;9.306;2022-11-27T08:38:44;7.53;;;5.70;;
4652;SDS011;9900;48.738;9.306;2022-11-27T08:41:13;7.07;;;5.30;;
4652;SDS011;9900;48.738;9.306;2022-11-27T08:43:42;6.40;;;4.97;;
4652;SDS011;9900;48.738;9.306;2022-11-27T08:46:12;8.87;;;5.53;;
4652;SDS011;9900;48.738;9.306;2022-11-27T08:48:40;7.77;;;6.27;;
4652;SDS011;9900;48.738;9.306;2022-11-27T08:51:10;10.00;;;7.17;;
4652;SDS011;9900;48.738;9.306;2022-11-27T08:53:40;10.60;;;6.20;;
4652;SDS011;9900;48.738;9.306;2022-11-27T08:56:13;6.10;;;5.20;;
4652;SDS011;9900;48.738;9.306;2022-11-27T08:58:43;7.37;;;5.50;;
4652;SDS011;9900;48.738;9.306;2022-11-27T09:01:14;7.10;;;5.50;;
4652;SDS011;9900;48.738;9.306;2022-11-27T09:03:44;7.07;;;5.47;;
4652;SDS011;9900;48.738;9.306;2022-11-27T09:06:14;7.00;;;4.87;;
4652;SDS011;9900;48.738;9.306;2022-11-27T09:08:44;6.07;;;5.47;;
4652;SDS011;9900;48.738;9.306;2022-11-27T09:11:13;6.60;;;5.53;;
4652;SDS011;9900;48.738;9.306;2022-11-27T09:13:43;7.03;;;5.60;;
4652;SDS011;9900;48.738;9.306;2022-11-27T09:16:14;8.80;;;6.20;;
4652;SDS011;9900;48.738;9.306;2022-11-27T09:18:44;6.60;;;5.10;;
4652;SDS011;9900;48.738;9.306;2022-11-27T09:21:13;7.60;;;5.70;;
4652;SDS011;9900;48.738;9.306;2022-11-27T09:23:44;9.13;;;6.20;;
4652;SDS011;9900;48.738;9.306;2022-11-27T09:26:13;8.47;;;6.23;;
4652;SDS011;9900;48.738;9.306;2022-11-27T09:28:43;9.37;;;6.20;;
4652;SDS011;9900;48.738;9.306;2022-11-27T09:31:13;7.03;;;5.23;;
4652;SDS011;9900;48.738;9.306;2022-11-27T09:33:42;8.00;;;5.90;;
4652;SDS011;9900;48.738;9.306;2022-11-27T09:36:12;6.73;;;5.50;;
4652;SDS011;9900;48.738;9.306;2022-11-27T09:38:43;7.60;;;5.90;;
4652;SDS011;9900;48.738;9.306;2022-11-27T09:41:29;8.67;;;6.27;;
4652;SDS011;9900;48.738;9.306;2022-11-27T09:44:09;7.10;;;5.90;;
4652;SDS011;9900;48.738;9.306;2022-11-27T09:46:46;6.93;;;5.23;;
4652;SDS011;9900;48.738;9.306;2022-11-27T09:49:16;7.90;;;5.47;;
4652;SDS011;9900;48.738;9.306;2022-11-27T09:51:48;7.50;;;5.57;;
4652;SDS011;9900;48.738;9.306;2022-11-27T09:54:22;7.03;;;5.53;;
4652;SDS011;9900;48.738;9.306;2022-11-27T09:56:52;7.27;;;5.90;;
4652;SDS011;9900;48.738;9.306;2022-11-27T09:59:24;9.03;;;6.17;;
4652;SDS011;9900;48.738;9.306;2022-11-27T10:01:58;6.97;;;6.00;;
4652;SDS011;9900;48.738;9.306;2022-11-27T10:04:26;8.23;;;6.50;;
4652;SDS011;9900;48.738;9.306;2022-11-27T10:07:18;8.40;;;6.67;;
4652;SDS011;9900;48.738;9.306;2022-11-27T10:10:00;7.73;;;6.17;;
4652;SDS011;9900;48.738;9.306;2022-11-27T10:12:34;7.40;;;6.37;;
4652;SDS011;9900;48.738;9.306;2022-11-27T10:15:09;8.77;;;6.37;;
4652;SDS011;9900;48.738;9.306;2022-11-27T10:17:43;7.20;;;6.10;;
4652;SDS011;9900;48.738;9.306;2022-11-27T10:20:20;6.03;;;5.43;;
4652;SDS011;9900;48.738;9.306;2022-11-27T10:22:56;7.97;;;6.03;;
4652;SDS011;9900;48.738;9.306;2022-11-27T10:25:28;11.20;;;6.90;;
4652;SDS011;9900;48.738;9.306;2022-11-27T10:28:07;8.30;;;6.37;;
4652;SDS011;9900;48.738;9.306;2022-11-27T10:30:43;9.67;;;6.90;;
4652;SDS011;9900;48.738;9.306;2022-11-27T10:33:17;7.60;;;6.40;;
4652;SDS011;9900;48.738;9.306;2022-11-27T10:35:49;11.33;;;7.87;;
4652;SDS011;9900;48.738;9.306;2022-11-27T10:38:19;12.70;;;9.33;;
4652;SDS011;9900;48.738;9.306;2022-11-27T10:40:51;7.43;;;6.50;;
4652;SDS011;9900;48.738;9.306;2022-11-27T10:43:22;9.70;;;6.07;;
4652;SDS011;9900;48.738;9.306;2022-11-27T10:45:53;8.70;;;6.67;;
4652;SDS011;9900;48.738;9.306;2022-11-27T10:48:25;10.30;;;6.90;;
4652;SDS011;9900;48.738;9.306;2022-11-27T10:50:58;10.13;;;7.67;;
4652;SDS011;9900;48.738;9.306;2022-11-27T10:53:28;9.10;;;6.73;;
4652;SDS011;9900;48.738;9.306;2022-11-27T10:56:12;11.30;;;7.43;;
4652;SDS011;9900;48.738;9.306;2022-11-27T10:58:49;10.33;;;7.03;;
4652;SDS011;9900;48.738;9.306;2022-11-27T11:01:20;9.60;;;7.23;;
4652;SDS011;9900;48.738;9.306;2022-11-27T11:04:02;11.10;;;7.07;;
4652;SDS011;9900;48.738;9.306;2022-11-27T11:06:52;12.50;;;7.57;;
4652;SDS011;9900;48.738;9.306;2022-11-27T11:09:21;12.00;;;7.87;;
4652;SDS011;9900;48.738;9.306;2022-11-27T11:11:51;11.27;;;7.57;;
4652;SDS011;9900;48.738;9.306;2022-11-27T11:14:20;9.60;;;7.50;;
4652;SDS011;9900;48.738;9.306;2022-11-27T11:16:51;11.50;;;7.43;;
4652;SDS011;9900;48.738;9.306;2022-11-27T11:19:23;8.30;;;6.80;;
4652;SDS011;9900;48.738;9.306;2022-11-27T11:21:53;9.40;;;6.90;;
4652;SDS011;9900;48.738;9.306;2022-11-27T11:24:22;9.73;;;7.47;;
4652;SDS011;9900;48.738;9.306;2022-11-27T11:26:54;11.20;;;8.07;;
4652;SDS011;9900;48.738;9.306;2022-11-27T11:29:26;12.80;;;9.10;;
4652;SDS011;9900;48.738;9.306;2022-11-27T11:32:02;9.37;;;7.67;;
4652;SDS011;9900;48.738;9.306;2022-11-27T11:34:35;9.33;;;7.20;;
4652;SDS011;9900;48.738;9.306;2022-11-27T11:37:20;10.20;;;7.23;;
4652;SDS011;9900;48.738;9.306;2022-11-27T11:39:55;10.17;;;8.00;;
4652;SDS011;9900;48.738;9.306;2022-11-27T11:42:25;12.00;;;7.80;;
4652;SDS011;9900;48.738;9.306;2022-11-27T11:45:00;10.70;;;7.50;;
4652;SDS011;9900;48.738;9.306;2022-11-27T11:47:31;12.73;;;7.30;;
4652;SDS011;9900;48.738;9.306;2022-11-27T11:50:01;10.90;;;7.30;;
4652;SDS011;9900;48.738;9.306;2022-11-27T11:52:33;9.83;;;7.93;;
4652;SDS011;9900;48.738;9.306;2022-11-27T11:55:11;8.80;;;6.90;;
4652;SDS011;9900;48.738;9.306;2022-11-27T11:57:53;10.03;;;7.87;;
4652;SDS011;9900;48.738;9.306;2022-11-27T12:00:26;10.10;;;7.93;;
4652;SDS011;9900;48.738;9.306;2022-11-27T12:03:26;12.33;;;8.37;;
4652;SDS011;9900;48.738;9.306;2022-11-27T12:06:05;11.63;;;7.50;;
4652;SDS011;9900;48.738;9.306;2022-11-27T12:08:47;10.10;;;7.80;;
4652;SDS011;9900;48.738;9.306;2022-11-27T12:11:20;13.73;;;7.30;;
4652;SDS011;9900;48.738;9.306;2022-11-27T12:13:55;13.37;;;8.60;;
4652;SDS011;9900;48.738;9.306;2022-11-27T12:16:31;12.00;;;8.80;;
4652;SDS011;9900;48.738;9.306;2022-11-27T12:19:08;13.00;;;8.23;;
4652;SDS011;9900;48.738;9.306;2022-11-27T12:21:59;12.80;;;7.70;;
4652;SDS011;9900;48.738;9.306;2022-11-27T12:24:35;9.93;;;7.93;;
4652;SDS011;9900;48.738;9.306;2022-11-27T12:27:12;9.80;;;8.17;;
4652;SDS011;9900;48.738;9.306;2022-11-27T12:29:49;10.57;;;8.57;;
4652;SDS011;9900;48.738;9.306;2022-11-27T12:35:22;10.80;;;7.80;;
4652;SDS011;9900;48.738;9.306;2022-11-27T12:43:39;8.90;;;6.90;;
4652;SDS011;9900;48.738;9.306;2022-11-27T12:46:10;13.93;;;8.33;;
4652;SDS011;9900;48.738;9.306;2022-11-27T12:48:42;9.47;;;7.07;;
4652;SDS011;9900;48.738;9.306;2022-11-27T12:51:15;10.97;;;8.37;;
4652;SDS011;9900;48.738;9.306;2022-11-27T12:53:49;11.97;;;7.83;;
4652;SDS011;9900;48.738;9.306;2022-11-27T12:56:20;11.40;;;7.63;;
4652;SDS011;9900;48.738;9.306;2022-11-27T12:58:51;10.53;;;7.70;;
4652;SDS011;9900;48.738;9.306;2022-11-27T13:01:23;11.50;;;8.07;;
4652;SDS011;9900;48.738;9.306;2022-11-27T13:03:59;12.23;;;8.17;;
4652;SDS011;9900;48.738;9.306;2022-11-27T13:06:33;10.20;;;7.30;;
4652;SDS011;9900;48.738;9.306;2022-11-27T13:09:11;12.37;;;9.20;;
4652;SDS011;9900;48.738;9.306;2022-11-27T13:11:42;9.97;;;7.27;;
4652;SDS011;9900;48.738;9.306;2022-11-27T13:14:13;9.23;;;7.17;;
4652;SDS011;9900;48.738;9.306;2022-11-27T13:16:44;10.93;;;7.83;;
4652;SDS011;9900;48.738;9.306;2022-11-27T13:19:15;11.70;;;7.90;;
4652;SDS011;9900;48.738;9.306;2022-11-27T13:21:49;11.80;;;8.30;;
4652;SDS011;9900;48.738;9.306;2022-11-27T13:24:21;9.03;;;7.20;;
4652;SDS011;9900;48.738;9.306;2022-11-27T13:26:55;11.70;;;8.00;;
4652;SDS011;9900;48.738;9.306;2022-11-27T13:29:27;13.27;;;8.33;;
4652;SDS011;9900;48.738;9.306;2022-11-27T13:31:58;11.43;;;7.83;;
4652;SDS011;9900;48.738;9.306;2022-11-27T13:34:28;14.17;;;7.47;;
4652;SDS011;9900;48.738;9.306;2022-11-27T13:36:59;9.97;;;7.77;;
4652;SDS011;9900;48.738;9.306;2022-11-27T13:39:31;14.73;;;7.73;;
4652;SDS011;9900;48.738;9.306;2022-11-27T13:42:03;12.77;;;8.93;;
4652;SDS011;9900;48.738;9.306;2022-11-27T13:44:34;10.20;;;8.07;;
4652;SDS011;9900;48.738;9.306;2022-11-27T13:47:07;13.00;;;8.70;;
4652;SDS011;9900;48.738;9.306;2022-11-27T13:49:38;12.27;;;8.97;;
4652;SDS011;9900;48.738;9.306;2022-11-27T13:52:09;10.43;;;8.00;;
4652;SDS011;9900;48.738;9.306;2022-11-27T13:54:45;11.07;;;8.20;;
4652;SDS011;9900;48.738;9.306;2022-11-27T13:57:19;15.33;;;8.20;;
4652;SDS011;9900;48.738;9.306;2022-11-27T13:59:57;12.37;;;8.80;;
4652;SDS011;9900;48.738;9.306;2022-11-27T14:02:38;17.83;;;9.30;;
4652;SDS011;9900;48.738;9.306;2022-11-27T14:05:08;11.90;;;8.37;;
4652;SDS011;9900;48.738;9.306;2022-11-27T14:07:38;15.40;;;8.53;;
4652;SDS011;9900;48.738;9.306;2022-11-27T14:10:11;17.30;;;9.90;;
4652;SDS011;9900;48.738;9.306;2022-11-27T14:12:49;17.07;;;11.93;;
4652;SDS011;9900;48.738;9.306;2022-11-27T14:15:20;18.90;;;13.30;;
4652;SDS011;9900;48.738;9.306;2022-11-27T14:17:50;19.53;;;11.90;;
4652;SDS011;9900;48.738;9.306;2022-11-27T14:20:23;16.80;;;10.40;;
4652;SDS011;9900;48.738;9.306;2022-11-27T14:22:53;14.27;;;10.30;;
4652;SDS011;9900;48.738;9.306;2022-11-27T14:25:41;16.10;;;9.73;;
4652;SDS011;9900;48.738;9.306;2022-11-27T14:28:12;15.00;;;9.50;;
4652;SDS011;9900;48.738;9.306;2022-11-27T14:30:44;17.50;;;9.70;;
4652;SDS011;9900;48.738;9.306;2022-11-27T14:33:15;18.73;;;10.50;;
4652;SDS011;9900;48.738;9.306;2022-11-27T14:35:48;11.80;;;9.20;;
4652;SDS011;9900;48.738;9.306;2022-11-27T14:38:17;17.03;;;11.33;;
4652;SDS011;9900;48.738;9.306;2022-11-27T14:40:48;15.20;;;10.37;;
4652;SDS011;9900;48.738;9.306;2022-11-27T14:43:20;18.63;;;12.40;;
4652;SDS011;9900;48.738;9.306;2022-11-27T14:45:53;21.83;;;11.57;;
4652;SDS011;9900;48.738;9.306;2022-11-27T14:48:29;18.43;;;11.00;;
4652;SDS011;9900;48.738;9.306;2022-11-27T14:50:59;18.17;;;9.77;;
4652;SDS011;9900;48.738;9.306;2022-11-27T14:53:27;15.60;;;9.17;;
4652;SDS011;9900;48.738;9.306;2022-11-27T14:55:58;15.10;;;8.30;;
4652;SDS011;9900;48.738;9.306;2022-11-27T14:58:27;13.77;;;8.20;;
4652;SDS011;9900;48.738;9.306;2022-11-27T15:00:58;11.93;;;8.40;;
4652;SDS011;9900;48.738;9.306;2022-11-27T15:03:28;12.40;;;7.40;;
4652;SDS011;9900;48.738;9.306;2022-11-27T15:05:57;10.53;;;7.40;;
4652;SDS011;9900;48.738;9.306;2022-11-27T15:08:27;8.70;;;7.00;;
4652;SDS011;9900;48.738;9.306;2022-11-27T15:10:58;13.90;;;7.83;;
4652;SDS011;9900;48.738;9.306;2022-11-27T15:13:28;12.50;;;7.67;;
4652;SDS011;9900;48.738;9.306;2022-11-27T15:15:59;17.27;;;10.47;;
4652;SDS011;9900;48.738;9.306;2022-11-27T15:18:32;17.40;;;9.80;;
4652;SDS011;9900;48.738;9.306;2022-11-27T15:21:02;11.50;;;6.70;;
4652;SDS011;9900;48.738;9.306;2022-11-27T15:23:31;8.10;;;5.50;;
4652;SDS011;9900;48.738;9.306;2022-11-27T15:26:07;8.27;;;5.63;;
4652;SDS011;9900;48.738;9.306;2022-11-27T15:28:49;8.57;;;6.47;;
4652;SDS011;9900;48.738;9.306;2022-11-27T15:31:22;9.73;;;6.30;;
4652;SDS011;9900;48.738;9.306;2022-11-27T15:33:59;11.43;;;6.80;;
4652;SDS011;9900;48.738;9.306;2022-11-27T15:36:33;11.37;;;6.60;;
4652;SDS011;9900;48.738;9.306;2022-11-27T15:39:13;8.57;;;6.07;;